createdAt,value
2022-12-04T00:00:34.894Z,15.95
2022-12-04T00:03:02.663Z,11.05
2022-12-04T00:05:30.311Z,13.68
2022-12-04T00:07:59.450Z,12.85
2022-12-04T00:10:27.194Z,13.02
2022-12-04T00:12:55.070Z,12.60
2022-12-04T00:15:25.561Z,13.05
2022-12-04T00:17:54.039Z,13.02
2022-12-04T00:20:22.964Z,11.55
2022-12-04T00:22:50.748Z,12.77
2022-12-04T00:25:20.118Z,12.13
2022-12-04T00:27:47.859Z,12.75
2022-12-04T00:30:15.663Z,12.48
2022-12-04T00:32:43.306Z,13.70
2022-12-04T00:35:11.036Z,12.60
2022-12-04T00:37:38.794Z,12.30
2022-12-04T00:40:07.392Z,12.57
2022-12-04T00:42:36.466Z,12.45
2022-12-04T00:45:04.196Z,12.55
2022-12-04T00:47:31.828Z,13.02
2022-12-04T00:49:59.409Z,11.35
2022-12-04T00:52:28.352Z,12.77
2022-12-04T00:54:56.212Z,11.77
2022-12-04T00:57:23.827Z,13.48
2022-12-04T00:59:53.056Z,11.75
2022-12-04T01:02:20.872Z,12.50
2022-12-04T01:04:48.648Z,14.68
2022-12-04T01:07:16.417Z,13.10
2022-12-04T01:09:44.090Z,13.07
2022-12-04T01:12:14.914Z,15.07
2022-12-04T01:14:45.388Z,15.82
2022-12-04T01:17:14.398Z,11.30
2022-12-04T01:19:42.029Z,13.20
2022-12-04T01:22:09.659Z,13.75
2022-12-04T01:24:37.311Z,12.00
2022-12-04T01:27:05.252Z,14.82
2022-12-04T01:29:32.922Z,13.15
2022-12-04T01:32:00.659Z,14.13
2022-12-04T01:34:30.061Z,13.57
2022-12-04T01:36:57.677Z,12.82
2022-12-04T01:39:25.436Z,12.88
2022-12-04T01:41:53.062Z,13.27
2022-12-04T01:44:22.045Z,12.13
2022-12-04T01:46:52.147Z,14.98
2022-12-04T01:49:22.059Z,11.82
2022-12-04T01:51:52.754Z,11.82
2022-12-04T01:54:22.736Z,13.82
2022-12-04T01:56:51.692Z,13.75
2022-12-04T01:59:22.401Z,14.23
2022-12-04T02:01:53.564Z,12.90
2022-12-04T02:04:21.385Z,13.15
2022-12-04T02:06:49.117Z,13.25
2022-12-04T02:09:23.006Z,12.80
2022-12-04T02:11:57.534Z,11.75
2022-12-04T02:14:30.611Z,13.88
2022-12-04T02:17:03.342Z,12.55
2022-12-04T02:19:42.578Z,12.55
2022-12-04T02:22:14.777Z,13.77
2022-12-04T02:24:50.159Z,14.02
2022-12-04T02:27:25.149Z,13.52
2022-12-04T02:29:58.664Z,11.73
2022-12-04T02:32:31.606Z,13.82
2022-12-04T02:35:00.995Z,13.73
2022-12-04T02:37:31.782Z,12.35
2022-12-04T02:40:04.382Z,13.55
2022-12-04T02:42:34.950Z,13.05
2022-12-04T02:45:07.475Z,11.18
2022-12-04T02:47:36.973Z,14.57
2022-12-04T02:50:07.677Z,13.60
2022-12-04T02:52:37.328Z,14.55
2022-12-04T02:55:08.778Z,13.88
2022-12-04T02:57:39.283Z,12.80
2022-12-04T03:00:09.260Z,13.43
2022-12-04T03:02:39.963Z,13.73
2022-12-04T03:05:10.528Z,13.55
2022-12-04T03:07:40.145Z,12.82
2022-12-04T03:10:11.025Z,13.95
2022-12-04T03:12:41.341Z,16.05
2022-12-04T03:15:13.893Z,14.90
2022-12-04T03:17:45.144Z,15.50
2022-12-04T03:20:14.335Z,12.88
2022-12-04T03:22:43.245Z,15.07
2022-12-04T03:25:11.837Z,17.92
2022-12-04T03:27:43.716Z,13.65
2022-12-04T03:30:13.432Z,14.13
2022-12-04T03:32:44.415Z,13.80
2022-12-04T03:35:14.282Z,13.25
2022-12-04T03:37:43.718Z,15.57
2022-12-04T03:40:16.860Z,13.35
2022-12-04T03:42:46.837Z,14.23
2022-12-04T03:45:20.735Z,14.07
2022-12-04T03:47:52.728Z,15.55
2022-12-04T03:50:24.000Z,14.23
2022-12-04T03:52:54.350Z,14.40
2022-12-04T03:55:25.523Z,14.57
2022-12-04T03:57:54.001Z,16.75
2022-12-04T04:00:23.601Z,14.77
2022-12-04T04:02:54.187Z,16.05
2022-12-04T04:05:22.230Z,14.88
2022-12-04T04:07:52.344Z,14.70
2022-12-04T04:10:21.488Z,16.13
2022-12-04T04:13:10.955Z,12.30
2022-12-04T04:16:00.597Z,14.68
2022-12-04T04:18:46.623Z,14.75
2022-12-04T04:24:17.695Z,13.10
2022-12-04T04:26:46.512Z,15.52
2022-12-04T04:29:14.488Z,16.15
2022-12-04T04:31:44.986Z,15.77
2022-12-04T04:34:17.527Z,13.93
2022-12-04T04:36:50.313Z,14.13
2022-12-04T04:39:20.983Z,15.88
2022-12-04T04:41:51.903Z,14.20
2022-12-04T04:44:22.777Z,15.95
2022-12-04T04:46:53.645Z,15.48
2022-12-04T04:49:23.798Z,13.82
2022-12-04T04:51:51.537Z,15.20
2022-12-04T04:54:20.896Z,15.43
2022-12-04T04:56:48.786Z,14.25
2022-12-04T04:59:16.406Z,15.02
2022-12-04T05:01:45.381Z,16.20
2022-12-04T05:04:14.522Z,13.50
2022-12-04T05:06:42.161Z,14.65
2022-12-04T05:09:09.810Z,15.00
2022-12-04T05:11:37.411Z,17.33
2022-12-04T05:14:05.985Z,15.52
2022-12-04T05:16:33.703Z,15.70
2022-12-04T05:19:18.942Z,15.45
2022-12-04T05:21:47.894Z,14.47
2022-12-04T05:24:15.531Z,16.02
2022-12-04T05:26:43.071Z,14.60
2022-12-04T05:29:11.867Z,15.00
2022-12-04T05:31:39.584Z,16.23
2022-12-04T05:34:07.597Z,14.32
2022-12-04T05:36:35.242Z,15.43
2022-12-04T05:39:04.663Z,14.07
2022-12-04T05:41:32.285Z,14.63
2022-12-04T05:43:59.928Z,14.30
2022-12-04T05:46:27.661Z,15.40
2022-12-04T05:48:55.332Z,14.55
2022-12-04T05:51:22.897Z,15.30
2022-12-04T05:53:52.386Z,16.77
2022-12-04T05:56:21.344Z,16.65
2022-12-04T05:58:49.306Z,14.38
2022-12-04T06:01:17.865Z,15.27
2022-12-04T06:03:45.534Z,13.80
2022-12-04T06:06:20.738Z,16.73
2022-12-04T06:08:49.458Z,17.38
2022-12-04T06:11:18.204Z,13.77
2022-12-04T06:13:47.738Z,14.00
2022-12-04T06:16:15.879Z,16.80
2022-12-04T06:18:43.638Z,14.07
2022-12-04T06:21:11.803Z,15.02
2022-12-04T06:23:39.510Z,13.95
2022-12-04T06:26:07.834Z,14.77
2022-12-04T06:28:35.894Z,17.00
2022-12-04T06:31:05.634Z,15.30
2022-12-04T06:33:33.551Z,14.73
2022-12-04T06:36:01.763Z,14.00
2022-12-04T06:38:29.613Z,14.10
2022-12-04T06:40:57.219Z,15.27
2022-12-04T06:43:24.959Z,14.40
2022-12-04T06:46:00.446Z,16.05
2022-12-04T06:51:01.542Z,13.45
2022-12-04T06:53:30.578Z,13.90
2022-12-04T06:55:59.084Z,14.52
2022-12-04T06:58:27.068Z,14.63
2022-12-04T07:00:54.859Z,13.43
2022-12-04T07:03:22.739Z,13.55
2022-12-04T07:05:50.781Z,14.50
2022-12-04T07:08:19.931Z,14.43
2022-12-04T07:10:47.574Z,14.07
2022-12-04T07:13:15.376Z,14.13
2022-12-04T07:15:43.099Z,15.57
2022-12-04T07:18:10.726Z,14.48
2022-12-04T07:20:40.836Z,15.80
2022-12-04T07:23:08.496Z,13.77
2022-12-04T07:25:41.567Z,14.70
2022-12-04T07:28:09.154Z,15.18
2022-12-04T07:30:38.270Z,15.32
2022-12-04T07:33:06.057Z,13.95
2022-12-04T07:35:33.650Z,14.45
2022-12-04T07:38:01.417Z,14.18
2022-12-04T07:40:29.418Z,16.00
2022-12-04T07:42:58.410Z,15.73
2022-12-04T07:45:26.065Z,14.50
2022-12-04T07:47:53.648Z,14.50
2022-12-04T07:50:21.316Z,13.75
2022-12-04T07:52:48.926Z,15.75
2022-12-04T07:55:21.628Z,15.93
2022-12-04T07:57:50.732Z,15.43
2022-12-04T08:00:20.459Z,15.15
2022-12-04T08:02:48.099Z,16.02
2022-12-04T08:05:15.797Z,14.48
2022-12-04T08:07:43.479Z,14.07
2022-12-04T08:10:11.282Z,15.38
2022-12-04T08:12:38.987Z,15.57
2022-12-04T08:15:07.371Z,14.18
2022-12-04T08:17:36.357Z,13.73
2022-12-04T08:20:04.818Z,12.88
2022-12-04T08:22:32.428Z,16.67
2022-12-04T08:25:00.032Z,13.80
2022-12-04T08:27:27.626Z,11.93
2022-12-04T08:29:55.995Z,13.80
2022-12-04T08:32:24.503Z,15.52
2022-12-04T08:34:55.859Z,14.75
2022-12-04T08:37:24.002Z,15.93
2022-12-04T08:39:51.734Z,14.60
2022-12-04T08:42:19.319Z,16.17
2022-12-04T08:44:46.960Z,15.52
2022-12-04T08:47:14.967Z,16.05
2022-12-04T08:49:42.611Z,16.13
2022-12-04T08:52:11.596Z,13.88
2022-12-04T08:54:39.449Z,16.35
2022-12-04T08:57:07.289Z,14.48
2022-12-04T08:59:35.087Z,16.20
2022-12-04T09:02:02.770Z,17.00
2022-12-04T09:04:30.625Z,16.00
2022-12-04T09:06:58.466Z,17.38
2022-12-04T09:09:27.515Z,16.67
2022-12-04T09:11:55.312Z,13.75
2022-12-04T09:14:25.843Z,14.40
2022-12-04T09:16:54.104Z,16.60
2022-12-04T09:19:22.640Z,13.20
2022-12-04T09:21:50.308Z,15.93
2022-12-04T09:24:18.072Z,13.68
2022-12-04T09:26:47.029Z,13.88
2022-12-04T09:29:14.682Z,13.85
2022-12-04T09:31:42.375Z,12.18
2022-12-04T09:34:10.191Z,14.32
2022-12-04T09:36:38.213Z,16.10
2022-12-04T09:39:05.965Z,14.45
2022-12-04T09:42:01.027Z,15.20
2022-12-04T09:44:30.684Z,14.70
2022-12-04T09:47:00.550Z,14.80
2022-12-04T09:49:30.503Z,15.60
2022-12-04T09:52:00.449Z,13.45
2022-12-04T09:54:29.501Z,14.23
2022-12-04T09:57:00.647Z,13.90
2022-12-04T09:59:29.212Z,14.60
2022-12-04T10:01:59.784Z,13.73
2022-12-04T10:04:27.390Z,12.15
2022-12-04T10:07:02.008Z,14.15
2022-12-04T10:09:31.439Z,15.93
2022-12-04T10:12:08.684Z,19.80
2022-12-04T10:14:45.889Z,14.68
2022-12-04T10:17:37.740Z,13.10
2022-12-04T10:20:09.495Z,13.60
2022-12-04T10:22:40.924Z,12.00
2022-12-04T10:25:12.793Z,14.60
2022-12-04T10:27:43.771Z,14.55
2022-12-04T10:30:17.076Z,15.90
2022-12-04T10:32:45.918Z,14.75
2022-12-04T10:35:20.660Z,14.50
2022-12-04T10:37:49.149Z,12.90
2022-12-04T10:40:20.217Z,15.48
2022-12-04T10:42:53.741Z,13.52
2022-12-04T10:45:21.988Z,12.50
2022-12-04T10:47:50.505Z,13.20
2022-12-04T10:50:19.414Z,10.45
2022-12-04T10:52:47.140Z,12.88
2022-12-04T10:55:15.304Z,11.43
2022-12-04T10:57:44.017Z,14.05
2022-12-04T11:00:35.515Z,13.45
2022-12-04T11:03:09.667Z,10.98
2022-12-04T11:05:39.932Z,12.52
2022-12-04T11:08:08.756Z,10.50
2022-12-04T11:10:37.625Z,13.40
2022-12-04T11:13:06.261Z,12.23
2022-12-04T11:15:36.523Z,12.40
2022-12-04T11:18:17.134Z,13.75
2022-12-04T11:20:50.586Z,12.52
2022-12-04T11:23:19.038Z,12.00
2022-12-04T11:25:47.888Z,13.48
2022-12-04T11:28:33.783Z,12.13
2022-12-04T11:31:07.505Z,12.32
2022-12-04T11:33:38.796Z,12.40
2022-12-04T11:36:09.346Z,10.82
2022-12-04T11:38:37.201Z,12.65
2022-12-04T11:41:06.571Z,13.77
2022-12-04T11:43:37.856Z,14.05
2022-12-04T11:46:06.580Z,12.65
2022-12-04T11:48:43.330Z,12.43
2022-12-04T11:51:16.342Z,12.57
2022-12-04T11:53:45.937Z,12.35
2022-12-04T11:56:17.963Z,9.65
2022-12-04T11:58:50.485Z,11.65
2022-12-04T12:01:36.084Z,11.25
2022-12-04T12:04:15.125Z,12.30
2022-12-04T12:06:50.197Z,13.48
2022-12-04T12:09:24.114Z,11.65
2022-12-04T12:11:56.843Z,11.98
2022-12-04T12:14:28.000Z,10.98
2022-12-04T12:16:59.262Z,12.45
2022-12-04T12:19:46.426Z,11.20
2022-12-04T12:22:21.828Z,10.20
2022-12-04T12:24:54.603Z,12.20
2022-12-04T12:27:29.784Z,10.13
2022-12-04T12:30:01.073Z,10.73
2022-12-04T12:32:37.252Z,12.00
2022-12-04T12:35:06.231Z,10.13
2022-12-04T12:37:38.762Z,11.73
2022-12-04T12:40:08.500Z,11.48
2022-12-04T12:42:39.803Z,12.80
2022-12-04T12:45:09.133Z,12.57
2022-12-04T12:47:40.740Z,10.65
2022-12-04T12:50:12.929Z,10.68
2022-12-04T12:52:44.808Z,11.70
2022-12-04T12:55:16.197Z,12.48
2022-12-04T12:57:44.556Z,10.60
2022-12-04T13:00:15.648Z,11.95
2022-12-04T13:02:46.445Z,10.95
2022-12-04T13:05:15.615Z,11.85
2022-12-04T13:07:46.833Z,11.57
2022-12-04T13:10:16.890Z,11.20
2022-12-04T13:12:46.357Z,12.68
2022-12-04T13:15:17.656Z,13.27
2022-12-04T13:17:46.770Z,10.93
2022-12-04T13:20:18.209Z,12.13
2022-12-04T13:22:52.916Z,10.15
2022-12-04T13:25:25.899Z,11.60
2022-12-04T13:27:59.640Z,12.15
2022-12-04T13:30:31.166Z,10.25
2022-12-04T13:33:17.383Z,12.77
2022-12-04T13:36:03.041Z,12.82
2022-12-04T13:38:36.482Z,11.70
2022-12-04T13:41:05.107Z,13.35
2022-12-04T13:43:35.045Z,13.45
2022-12-04T13:46:03.663Z,11.82
2022-12-04T13:48:33.142Z,12.27
2022-12-04T13:51:05.200Z,12.45
2022-12-04T13:53:37.265Z,12.23
2022-12-04T13:56:09.479Z,12.85
2022-12-04T13:58:39.055Z,10.68
2022-12-04T14:01:13.113Z,10.38
2022-12-04T14:03:47.287Z,13.00
2022-12-04T14:06:22.016Z,11.25
2022-12-04T14:08:55.779Z,12.23
2022-12-04T14:11:24.222Z,10.85
2022-12-04T14:13:53.624Z,10.80
2022-12-04T14:16:23.411Z,10.98
2022-12-04T14:18:52.368Z,11.20
2022-12-04T14:21:20.066Z,10.90
2022-12-04T14:23:47.860Z,12.80
2022-12-04T14:27:03.554Z,12.38
2022-12-04T14:29:37.427Z,12.20
2022-12-04T14:34:34.145Z,11.27
2022-12-04T14:37:02.916Z,10.45
2022-12-04T14:39:32.410Z,10.68
2022-12-04T14:42:07.471Z,10.65
2022-12-04T14:44:35.188Z,9.73
2022-12-04T14:47:10.711Z,9.82
2022-12-04T14:49:46.537Z,9.80
2022-12-04T14:52:17.277Z,12.57
2022-12-04T14:54:50.391Z,14.18
2022-12-04T14:57:28.033Z,11.40
2022-12-04T14:59:56.756Z,12.38
2022-12-04T15:02:28.582Z,12.40
2022-12-04T15:04:56.517Z,15.13
2022-12-04T15:07:26.174Z,12.68
2022-12-04T15:10:12.192Z,15.48
2022-12-04T15:15:15.290Z,14.93
2022-12-04T15:17:42.934Z,14.65
2022-12-04T15:20:11.871Z,15.75
2022-12-04T15:22:39.761Z,14.90
2022-12-04T15:25:08.078Z,16.80
2022-12-04T15:27:36.434Z,15.10
2022-12-04T15:30:04.927Z,17.83
2022-12-04T15:32:34.079Z,18.33
2022-12-04T15:35:03.149Z,15.60
2022-12-04T15:37:31.770Z,17.25
2022-12-04T15:39:59.996Z,16.52
2022-12-04T15:42:28.474Z,16.13
2022-12-04T15:45:00.972Z,17.63
2022-12-04T15:47:29.374Z,18.50
2022-12-04T15:50:12.120Z,17.05
2022-12-04T15:52:49.077Z,16.05
2022-12-04T15:55:18.196Z,17.42
2022-12-04T15:57:51.626Z,16.55
2022-12-04T16:00:24.680Z,18.27
2022-12-04T16:02:52.489Z,18.73
2022-12-04T16:05:32.750Z,17.45
2022-12-04T16:08:02.577Z,17.67
2022-12-04T16:10:31.449Z,17.75
2022-12-04T16:13:00.900Z,18.27
2022-12-04T16:15:40.187Z,19.17
2022-12-04T16:18:08.429Z,19.58
2022-12-04T16:20:36.507Z,15.93
2022-12-04T16:23:05.785Z,19.05
2022-12-04T16:25:33.509Z,15.07
2022-12-04T16:28:01.745Z,16.10
2022-12-04T16:30:30.904Z,14.88
2022-12-04T16:32:58.529Z,17.02
2022-12-04T16:35:26.205Z,16.77
2022-12-04T16:37:53.931Z,16.23
2022-12-04T16:40:22.897Z,14.10
2022-12-04T16:42:50.570Z,17.35
2022-12-04T16:45:22.785Z,16.23
2022-12-04T16:47:50.412Z,17.60
2022-12-04T16:50:18.060Z,16.20
2022-12-04T16:52:45.951Z,14.32
2022-12-04T16:55:17.348Z,15.63
2022-12-04T16:57:46.481Z,15.63
2022-12-04T17:00:14.838Z,14.57
2022-12-04T17:02:42.833Z,15.43
2022-12-04T17:05:17.878Z,15.88
2022-12-04T17:07:45.587Z,14.75
2022-12-04T17:10:21.794Z,16.27
2022-12-04T17:12:54.419Z,15.50
2022-12-04T17:15:22.177Z,16.90
2022-12-04T17:17:49.912Z,15.60
2022-12-04T17:20:18.352Z,17.15
2022-12-04T17:22:46.079Z,14.07
2022-12-04T17:25:13.760Z,14.20
2022-12-04T17:27:41.500Z,14.82
2022-12-04T17:30:11.800Z,16.70
2022-12-04T17:32:39.483Z,13.55
2022-12-04T17:35:08.105Z,14.35
2022-12-04T17:37:36.643Z,14.80
2022-12-04T17:40:04.750Z,14.93
2022-12-04T17:42:33.005Z,15.00
2022-12-04T17:45:00.983Z,21.55
2022-12-04T17:47:30.039Z,21.45
2022-12-04T17:49:58.715Z,20.55
2022-12-04T17:52:26.418Z,18.75
2022-12-04T17:54:54.127Z,16.13
2022-12-04T17:57:23.744Z,18.10
2022-12-04T17:59:52.012Z,15.20
2022-12-04T18:02:19.708Z,21.15
2022-12-04T18:04:48.653Z,19.13
2022-12-04T18:07:16.403Z,18.15
2022-12-04T18:09:43.995Z,18.67
2022-12-04T18:12:12.250Z,18.77
2022-12-04T18:14:40.029Z,16.80
2022-12-04T18:17:07.700Z,16.30
2022-12-04T18:19:35.455Z,15.98
2022-12-04T18:22:04.499Z,16.67
2022-12-04T18:24:32.071Z,15.35
2022-12-04T18:26:59.698Z,14.13
2022-12-04T18:29:27.786Z,15.18
2022-12-04T18:31:55.577Z,16.13
2022-12-04T18:34:23.454Z,16.13
2022-12-04T18:36:51.387Z,16.25
2022-12-04T18:39:21.563Z,14.30
2022-12-04T18:41:49.412Z,14.43
2022-12-04T18:44:17.568Z,14.57
2022-12-04T18:46:45.487Z,16.42
2022-12-04T18:49:13.163Z,15.38
2022-12-04T18:51:42.880Z,16.33
2022-12-04T18:54:13.054Z,15.80
2022-12-04T18:56:42.379Z,16.30
2022-12-04T18:59:11.277Z,14.68
2022-12-04T19:01:39.327Z,16.02
2022-12-04T19:04:08.007Z,13.68
2022-12-04T19:06:36.644Z,16.95
2022-12-04T19:09:05.819Z,17.52
2022-12-04T19:11:33.614Z,15.32
2022-12-04T19:14:08.287Z,14.48
2022-12-04T19:16:40.576Z,15.23
2022-12-04T19:19:09.020Z,16.58
2022-12-04T19:21:36.726Z,15.95
2022-12-04T19:24:04.530Z,16.15
2022-12-04T19:26:33.092Z,15.70
2022-12-04T19:29:03.506Z,16.40
2022-12-04T19:31:31.929Z,16.45
2022-12-04T19:33:59.664Z,15.77
2022-12-04T19:36:28.042Z,14.98
2022-12-04T19:38:56.164Z,17.45
2022-12-04T19:41:25.616Z,19.13
2022-12-04T19:43:53.956Z,16.08
2022-12-04T19:46:25.960Z,15.63
2022-12-04T19:48:54.728Z,14.73
2022-12-04T19:51:22.488Z,18.83
2022-12-04T19:53:50.431Z,17.23
2022-12-04T19:56:19.214Z,15.70
2022-12-04T19:58:47.168Z,16.50
2022-12-04T20:01:15.819Z,17.15
2022-12-04T20:03:44.862Z,15.23
2022-12-04T20:06:13.337Z,17.50
2022-12-04T20:08:41.374Z,15.85
2022-12-04T20:11:11.740Z,17.02
2022-12-04T20:13:39.617Z,14.32
2022-12-04T20:16:09.387Z,16.85
2022-12-04T20:18:37.838Z,15.90
2022-12-04T20:21:11.120Z,17.15
2022-12-04T20:23:41.367Z,14.75
2022-12-04T20:26:09.812Z,15.52
2022-12-04T20:28:37.801Z,19.52
2022-12-04T20:31:11.904Z,18.95
2022-12-04T20:33:41.182Z,16.35
2022-12-04T20:36:10.492Z,17.60
2022-12-04T20:38:38.439Z,17.25
2022-12-04T20:41:06.671Z,16.92
2022-12-04T20:43:34.499Z,18.00
2022-12-04T20:46:02.935Z,16.98
2022-12-04T20:48:30.582Z,17.25
2022-12-04T20:51:01.694Z,17.52
2022-12-04T20:53:31.495Z,16.15
2022-12-04T20:55:59.253Z,16.77
2022-12-04T20:58:27.171Z,18.95
2022-12-04T21:00:54.794Z,18.10
2022-12-04T21:03:22.573Z,16.20
2022-12-04T21:05:50.832Z,21.50
2022-12-04T21:08:39.124Z,17.23
2022-12-04T21:11:08.186Z,16.30
2022-12-04T21:13:53.254Z,18.38
2022-12-04T21:16:21.063Z,18.30
2022-12-04T21:18:48.772Z,18.15
2022-12-04T21:21:16.474Z,17.13
2022-12-04T21:23:44.105Z,18.58
2022-12-04T21:26:14.371Z,19.42
2022-12-04T21:28:42.008Z,18.85
2022-12-04T21:31:10.278Z,18.42
2022-12-04T21:33:39.028Z,19.20
2022-12-04T21:36:08.308Z,17.67
2022-12-04T21:38:36.255Z,17.63
2022-12-04T21:41:04.514Z,19.05
2022-12-04T21:43:33.838Z,16.10
2022-12-04T21:46:08.822Z,16.52
2022-12-04T21:51:13.254Z,15.95
2022-12-04T21:53:54.858Z,20.17
2022-12-04T21:56:22.975Z,17.60
2022-12-04T21:58:52.436Z,20.42
2022-12-04T22:01:21.264Z,19.45
2022-12-04T22:03:49.069Z,21.20
2022-12-04T22:06:16.762Z,19.63
2022-12-04T22:08:44.756Z,18.48
2022-12-04T22:11:13.004Z,17.70
2022-12-04T22:13:40.667Z,20.50
2022-12-04T22:16:12.213Z,19.20
2022-12-04T22:18:39.901Z,17.08
2022-12-04T22:21:08.654Z,18.13
2022-12-04T22:23:36.570Z,17.02
2022-12-04T22:26:07.896Z,17.92
2022-12-04T22:28:35.581Z,17.00
2022-12-04T22:31:04.297Z,15.35
2022-12-04T22:33:33.346Z,18.02
2022-12-04T22:36:04.822Z,18.08
2022-12-04T22:38:32.543Z,16.00
2022-12-04T22:41:01.602Z,19.38
2022-12-04T22:43:29.631Z,17.95
2022-12-04T22:45:57.438Z,17.50
2022-12-04T22:48:25.403Z,17.00
2022-12-04T22:50:58.155Z,16.00
2022-12-04T22:53:26.019Z,13.98
2022-12-04T22:55:53.708Z,17.45
2022-12-04T22:58:21.391Z,17.13
2022-12-04T23:00:50.074Z,20.10
2022-12-04T23:03:17.720Z,18.08
2022-12-04T23:05:45.390Z,17.23
2022-12-04T23:08:14.440Z,18.58
2022-12-04T23:10:42.145Z,18.48
2022-12-04T23:13:09.769Z,15.73
2022-12-04T23:15:38.230Z,19.30
2022-12-04T23:18:06.494Z,18.50
2022-12-04T23:20:34.165Z,17.33
2022-12-04T23:23:01.834Z,16.48
2022-12-04T23:25:30.788Z,16.88
2022-12-04T23:27:58.488Z,19.30
2022-12-04T23:30:28.468Z,16.98
2022-12-04T23:32:57.581Z,19.30
2022-12-04T23:35:25.919Z,19.05
2022-12-04T23:37:53.512Z,19.27
2022-12-04T23:40:21.269Z,16.67
2022-12-04T23:42:50.229Z,15.20
2022-12-04T23:45:17.880Z,19.65
2022-12-04T23:47:45.464Z,18.00
2022-12-04T23:50:13.054Z,15.30
2022-12-04T23:52:40.703Z,17.35
2022-12-04T23:55:08.980Z,18.48
2022-12-04T23:57:36.584Z,15.30
